createdAt,value
2023-01-08T00:02:30.118Z,2.60
2023-01-08T00:05:03.886Z,2.50
2023-01-08T00:07:37.318Z,2.40
2023-01-08T00:10:11.071Z,2.40
2023-01-08T00:12:44.572Z,2.40
2023-01-08T00:15:18.474Z,2.40
2023-01-08T00:17:53.358Z,2.40
2023-01-08T00:20:26.941Z,2.40
2023-01-08T00:23:00.391Z,2.40
2023-01-08T00:25:34.234Z,2.40
2023-01-08T00:28:08.028Z,2.40
2023-01-08T00:30:42.262Z,2.40
2023-01-08T00:33:17.508Z,2.40
2023-01-08T00:35:51.013Z,2.40
2023-01-08T00:38:27.407Z,2.40
2023-01-08T00:41:01.216Z,2.50
2023-01-08T00:43:34.742Z,2.50
2023-01-08T00:46:08.444Z,2.50
2023-01-08T00:48:43.322Z,2.50
2023-01-08T00:51:16.799Z,2.60
2023-01-08T00:53:50.586Z,2.60
2023-01-08T00:56:24.054Z,2.60
2023-01-08T00:58:57.705Z,2.60
2023-01-08T01:01:31.728Z,2.60
2023-01-08T01:04:07.028Z,2.60
2023-01-08T01:06:40.983Z,2.60
2023-01-08T01:09:14.454Z,2.70
2023-01-08T01:11:48.401Z,2.70
2023-01-08T01:14:22.092Z,2.70
2023-01-08T01:16:55.608Z,2.70
2023-01-08T01:19:30.677Z,2.80
2023-01-08T01:22:04.488Z,2.80
2023-01-08T01:24:38.212Z,2.80
2023-01-08T01:27:12.123Z,2.80
2023-01-08T01:29:45.661Z,2.80
2023-01-08T01:32:19.345Z,2.80
2023-01-08T01:34:54.233Z,2.80
2023-01-08T01:37:28.144Z,2.90
2023-01-08T01:40:01.628Z,2.90
2023-01-08T01:42:41.409Z,2.90
2023-01-08T01:45:22.403Z,2.90
2023-01-08T01:47:58.930Z,3.00
2023-01-08T01:50:38.167Z,3.00
2023-01-08T01:53:14.438Z,3.00
2023-01-08T01:55:49.110Z,3.00
2023-01-08T01:58:25.792Z,3.00
2023-01-08T02:01:02.670Z,3.00
2023-01-08T02:03:38.378Z,3.10
2023-01-08T02:06:21.382Z,3.10
2023-01-08T02:09:02.576Z,3.10
2023-01-08T02:11:45.990Z,3.10
2023-01-08T02:14:28.139Z,3.10
2023-01-08T02:17:05.442Z,3.10
2023-01-08T02:19:46.880Z,3.10
2023-01-08T02:22:33.461Z,3.10
2023-01-08T02:25:12.429Z,3.10
2023-01-08T02:27:50.588Z,3.10
2023-01-08T02:30:25.503Z,3.20
2023-01-08T02:32:58.953Z,3.20
2023-01-08T02:35:39.133Z,3.20
2023-01-08T02:38:16.077Z,3.10
2023-01-08T02:40:58.081Z,3.10
2023-01-08T02:43:39.597Z,3.20
2023-01-08T02:46:16.320Z,3.20
2023-01-08T02:48:54.169Z,3.20
2023-01-08T02:51:32.357Z,3.20
2023-01-08T02:54:11.223Z,3.30
2023-01-08T02:56:48.582Z,3.20
2023-01-08T02:59:25.313Z,3.30
2023-01-08T03:01:59.674Z,3.30
2023-01-08T03:04:38.717Z,3.20
2023-01-08T03:07:12.616Z,3.30
2023-01-08T03:09:46.510Z,3.30
2023-01-08T03:12:25.818Z,3.30
2023-01-08T03:15:08.459Z,3.30
2023-01-08T03:17:46.051Z,3.30
2023-01-08T03:20:23.412Z,3.30
2023-01-08T03:22:59.787Z,3.30
2023-01-08T03:25:35.146Z,3.20
2023-01-08T03:28:14.756Z,3.10
2023-01-08T03:30:51.520Z,3.10
2023-01-08T03:33:26.716Z,3.00
2023-01-08T03:36:03.112Z,2.90
2023-01-08T03:38:40.856Z,2.90
2023-01-08T03:41:20.266Z,2.70
2023-01-08T03:43:53.876Z,2.70
2023-01-08T03:46:33.603Z,2.70
2023-01-08T03:49:09.174Z,2.70
2023-01-08T03:51:43.246Z,2.70
2023-01-08T03:54:19.455Z,2.60
2023-01-08T03:56:52.998Z,2.50
2023-01-08T03:59:26.633Z,2.50
2023-01-08T04:02:01.616Z,2.40
2023-01-08T04:04:35.968Z,2.40
2023-01-08T04:07:11.772Z,2.40
2023-01-08T04:09:45.708Z,2.30
2023-01-08T04:12:19.148Z,2.30
2023-01-08T04:14:52.972Z,2.30
2023-01-08T04:17:27.843Z,2.30
2023-01-08T04:20:01.466Z,2.30
2023-01-08T04:22:34.969Z,2.30
2023-01-08T04:25:09.327Z,2.20
2023-01-08T04:27:42.818Z,2.20
2023-01-08T04:30:16.676Z,2.20
2023-01-08T04:32:51.565Z,2.20
2023-01-08T04:35:25.423Z,2.20
2023-01-08T04:37:59.104Z,2.20
2023-01-08T04:40:34.363Z,2.20
2023-01-08T04:43:08.196Z,2.20
2023-01-08T04:45:41.632Z,2.30
2023-01-08T04:48:16.684Z,2.30
2023-01-08T04:50:51.228Z,2.30
2023-01-08T04:53:24.725Z,2.30
2023-01-08T04:55:58.202Z,2.30
2023-01-08T04:58:31.911Z,2.30
2023-01-08T05:01:12.849Z,2.30
2023-01-08T05:03:48.213Z,2.30
2023-01-08T05:06:21.875Z,2.30
2023-01-08T05:08:55.395Z,2.40
2023-01-08T05:11:29.253Z,2.30
2023-01-08T05:14:02.706Z,2.30
2023-01-08T05:16:36.489Z,2.40
2023-01-08T05:19:11.425Z,2.40
2023-01-08T05:21:45.248Z,2.40
2023-01-08T05:24:18.726Z,2.40
2023-01-08T05:26:52.363Z,2.40
2023-01-08T05:29:25.847Z,2.40
2023-01-08T05:31:59.496Z,2.50
2023-01-08T05:34:34.550Z,2.50
2023-01-08T05:37:08.030Z,2.50
2023-01-08T05:39:41.862Z,2.50
2023-01-08T05:42:15.553Z,2.50
2023-01-08T05:44:49.232Z,2.60
2023-01-08T05:47:22.747Z,2.60
2023-01-08T05:49:57.786Z,2.60
2023-01-08T05:52:31.315Z,2.60
2023-01-08T05:55:05.524Z,2.70
2023-01-08T05:57:39.038Z,2.70
2023-01-08T06:00:13.969Z,2.70
2023-01-08T06:02:48.538Z,2.70
2023-01-08T06:05:23.796Z,2.70
2023-01-08T06:07:57.456Z,2.70
2023-01-08T06:10:30.915Z,2.70
2023-01-08T06:13:08.526Z,2.70
2023-01-08T06:15:42.008Z,2.80
2023-01-08T06:18:15.728Z,2.70
2023-01-08T06:20:50.580Z,2.70
2023-01-08T06:23:24.298Z,2.80
2023-01-08T06:25:59.408Z,2.80
2023-01-08T06:28:33.141Z,2.90
2023-01-08T06:31:06.775Z,2.90
2023-01-08T06:33:40.274Z,2.90
2023-01-08T06:36:15.143Z,3.00
2023-01-08T06:38:48.623Z,3.00
2023-01-08T06:41:22.085Z,3.00
2023-01-08T06:43:55.719Z,3.00
2023-01-08T06:46:29.348Z,3.00
2023-01-08T06:49:02.870Z,3.10
2023-01-08T06:51:37.890Z,3.10
2023-01-08T06:54:13.514Z,3.10
2023-01-08T06:56:54.013Z,3.10
2023-01-08T06:59:27.868Z,3.20
2023-01-08T07:02:01.556Z,3.20
2023-01-08T07:04:35.206Z,3.20
2023-01-08T07:07:10.716Z,3.30
2023-01-08T07:09:44.526Z,3.30
2023-01-08T07:12:18.025Z,3.30
2023-01-08T07:14:51.483Z,3.30
2023-01-08T07:17:25.143Z,3.30
2023-01-08T07:19:58.671Z,3.40
2023-01-08T07:22:33.604Z,3.40
2023-01-08T07:25:08.309Z,3.50
2023-01-08T07:27:42.005Z,3.40
2023-01-08T07:30:28.921Z,3.50
2023-01-08T07:33:03.889Z,3.50
2023-01-08T07:35:38.999Z,3.50
2023-01-08T07:38:14.061Z,3.60
2023-01-08T07:40:47.961Z,3.60
2023-01-08T07:43:21.622Z,3.70
2023-01-08T07:45:55.110Z,3.70
2023-01-08T07:48:28.577Z,3.70
2023-01-08T07:51:03.737Z,3.80
2023-01-08T07:53:38.920Z,3.80
2023-01-08T07:56:13.222Z,3.90
2023-01-08T07:58:46.721Z,4.00
2023-01-08T08:01:20.502Z,4.00
2023-01-08T08:03:54.259Z,4.10
2023-01-08T08:06:27.919Z,4.20
2023-01-08T08:09:03.825Z,4.20
2023-01-08T08:11:38.564Z,4.30
2023-01-08T08:14:12.258Z,4.30
2023-01-08T08:16:45.735Z,4.40
2023-01-08T08:19:19.370Z,4.50
2023-01-08T08:21:52.861Z,4.50
2023-01-08T08:24:27.937Z,4.60
2023-01-08T08:27:01.488Z,4.70
2023-01-08T08:29:35.347Z,4.70
2023-01-08T08:32:08.876Z,4.80
2023-01-08T08:34:42.336Z,4.90
2023-01-08T08:37:15.976Z,4.90
2023-01-08T08:39:50.862Z,5.00
2023-01-08T08:42:24.354Z,5.10
2023-01-08T08:44:58.118Z,5.10
2023-01-08T08:47:31.690Z,5.20
2023-01-08T08:50:06.127Z,5.30
2023-01-08T08:52:39.930Z,5.40
2023-01-08T08:55:17.446Z,5.40
2023-01-08T08:57:50.987Z,5.50
2023-01-08T09:00:24.826Z,5.60
2023-01-08T09:02:58.457Z,5.70
2023-01-08T09:05:32.396Z,5.80
2023-01-08T09:08:06.222Z,5.90
2023-01-08T09:10:43.618Z,6.00
2023-01-08T09:13:17.423Z,6.10
2023-01-08T09:15:51.025Z,6.20
2023-01-08T09:18:24.546Z,6.30
2023-01-08T09:20:58.059Z,6.40
2023-01-08T09:23:31.584Z,6.40
2023-01-08T09:26:06.963Z,6.50
2023-01-08T09:28:40.635Z,6.50
2023-01-08T09:31:14.370Z,6.60
2023-01-08T09:33:48.991Z,6.60
2023-01-08T09:36:22.677Z,6.70
2023-01-08T09:38:56.222Z,6.70
2023-01-08T09:41:35.007Z,6.80
2023-01-08T09:44:08.967Z,6.80
2023-01-08T09:46:43.225Z,6.80
2023-01-08T09:49:22.284Z,6.80
2023-01-08T09:51:56.156Z,6.90
2023-01-08T09:54:30.224Z,6.90
2023-01-08T09:57:05.585Z,7.00
2023-01-08T09:59:40.265Z,7.00
2023-01-08T10:02:17.469Z,7.10
2023-01-08T10:04:55.428Z,7.00
2023-01-08T10:07:31.299Z,7.00
2023-01-08T10:10:05.154Z,7.00
2023-01-08T10:12:40.996Z,7.00
2023-01-08T10:15:17.354Z,7.00
2023-01-08T10:17:55.928Z,7.10
2023-01-08T10:20:30.360Z,7.00
2023-01-08T10:23:12.655Z,7.10
2023-01-08T10:25:52.511Z,7.10
2023-01-08T10:28:29.549Z,7.10
2023-01-08T10:31:09.867Z,7.10
2023-01-08T10:33:45.261Z,7.10
2023-01-08T10:36:23.901Z,7.10
2023-01-08T10:39:00.941Z,7.10
2023-01-08T10:41:40.687Z,7.10
2023-01-08T10:44:19.505Z,7.10
2023-01-08T10:46:57.031Z,7.20
2023-01-08T10:49:35.068Z,7.20
2023-01-08T10:52:25.472Z,7.20
2023-01-08T10:54:59.431Z,7.30
2023-01-08T10:57:34.498Z,7.30
2023-01-08T11:00:24.602Z,7.30
2023-01-08T11:03:00.083Z,7.30
2023-01-08T11:05:35.376Z,7.40
2023-01-08T11:08:14.494Z,7.40
2023-01-08T11:10:56.012Z,7.40
2023-01-08T11:13:30.833Z,7.50
2023-01-08T11:16:08.322Z,7.50
2023-01-08T11:18:47.507Z,7.50
2023-01-08T11:21:23.330Z,7.60
2023-01-08T11:24:11.674Z,7.60
2023-01-08T11:26:48.078Z,7.60
2023-01-08T11:29:28.055Z,7.50
2023-01-08T11:32:19.294Z,7.60
2023-01-08T11:34:58.326Z,7.50
2023-01-08T11:37:36.712Z,7.60
2023-01-08T11:40:16.060Z,7.50
2023-01-08T11:43:04.959Z,7.50
2023-01-08T11:45:49.916Z,7.50
2023-01-08T11:48:40.806Z,7.50
2023-01-08T11:51:35.246Z,7.50
2023-01-08T11:54:21.498Z,7.60
2023-01-08T11:57:08.425Z,7.60
2023-01-08T11:59:56.151Z,7.70
2023-01-08T12:02:47.445Z,7.70
2023-01-08T12:05:28.208Z,7.70
2023-01-08T12:08:05.685Z,7.80
2023-01-08T12:10:50.830Z,7.90
2023-01-08T12:13:47.926Z,7.90
2023-01-08T12:16:36.365Z,8.00
2023-01-08T12:19:21.396Z,8.00
2023-01-08T12:22:15.825Z,8.00
2023-01-08T12:25:23.745Z,8.00
2023-01-08T12:28:11.090Z,8.00
2023-01-08T12:30:55.314Z,8.10
2023-01-08T12:33:38.108Z,8.10
2023-01-08T12:36:14.413Z,8.00
2023-01-08T12:38:55.167Z,8.00
2023-01-08T12:41:29.161Z,8.00
2023-01-08T12:44:05.350Z,8.00
2023-01-08T12:46:46.023Z,8.00
2023-01-08T12:49:26.806Z,8.00
2023-01-08T12:52:07.404Z,8.00
2023-01-08T12:54:54.093Z,8.00
2023-01-08T12:57:33.039Z,8.00
2023-01-08T13:00:11.718Z,8.00
2023-01-08T13:02:53.113Z,8.00
2023-01-08T13:05:35.813Z,8.00
2023-01-08T13:08:09.996Z,8.00
2023-01-08T13:10:52.009Z,8.00
2023-01-08T13:13:30.651Z,8.00
2023-01-08T13:16:20.125Z,7.90
2023-01-08T13:18:58.671Z,7.90
2023-01-08T13:21:35.615Z,7.90
2023-01-08T13:24:28.827Z,7.90
2023-01-08T13:27:28.142Z,7.90
2023-01-08T13:30:02.152Z,7.90
2023-01-08T13:32:47.159Z,7.80
2023-01-08T13:35:26.421Z,7.80
2023-01-08T13:38:24.018Z,7.80
2023-01-08T13:40:57.967Z,7.70
2023-01-08T13:43:39.389Z,7.70
2023-01-08T13:46:18.943Z,7.70
2023-01-08T13:48:58.628Z,7.70
2023-01-08T13:51:40.608Z,7.70
2023-01-08T13:54:26.239Z,7.70
2023-01-08T13:57:05.806Z,7.70
2023-01-08T13:59:42.851Z,7.70
2023-01-08T14:02:34.185Z,7.70
2023-01-08T14:05:20.332Z,7.70
2023-01-08T14:07:54.276Z,7.70
2023-01-08T14:10:29.855Z,7.60
2023-01-08T14:13:10.183Z,7.60
2023-01-08T14:15:45.734Z,7.60
2023-01-08T14:18:19.841Z,7.60
2023-01-08T14:20:53.707Z,7.60
2023-01-08T14:23:31.525Z,7.60
2023-01-08T14:26:08.638Z,7.60
2023-01-08T14:28:52.559Z,7.60
2023-01-08T14:31:28.922Z,7.60
2023-01-08T14:34:02.639Z,7.60
2023-01-08T14:36:36.234Z,7.60
2023-01-08T14:39:13.126Z,7.50
2023-01-08T14:42:04.298Z,7.50
2023-01-08T14:44:42.198Z,7.50
2023-01-08T14:47:20.847Z,7.50
2023-01-08T14:49:56.491Z,7.50
2023-01-08T14:52:30.240Z,7.50
2023-01-08T14:55:05.485Z,7.50
2023-01-08T14:57:39.013Z,7.50
2023-01-08T15:00:19.883Z,7.50
2023-01-08T15:02:55.163Z,7.50
2023-01-08T15:05:30.625Z,7.50
2023-01-08T15:08:23.165Z,7.50
2023-01-08T15:11:00.626Z,7.40
2023-01-08T15:13:38.102Z,7.40
2023-01-08T15:16:13.551Z,7.40
2023-01-08T15:18:53.670Z,7.40
2023-01-08T15:21:27.311Z,7.50
2023-01-08T15:24:02.432Z,7.50
2023-01-08T15:26:36.092Z,7.50
2023-01-08T15:29:16.476Z,7.50
2023-01-08T15:31:50.612Z,7.50
2023-01-08T15:34:25.717Z,7.50
2023-01-08T15:36:59.277Z,7.50
2023-01-08T15:39:33.013Z,7.50
2023-01-08T15:42:36.386Z,7.50
2023-01-08T15:45:14.959Z,7.60
2023-01-08T15:47:48.722Z,7.60
2023-01-08T15:50:24.667Z,7.60
2023-01-08T15:52:58.425Z,7.60
2023-01-08T15:55:32.999Z,7.50
2023-01-08T15:58:06.652Z,7.60
2023-01-08T16:00:40.351Z,7.50
2023-01-08T16:03:14.920Z,7.60
2023-01-08T16:05:49.834Z,7.60
2023-01-08T16:08:23.352Z,7.60
2023-01-08T16:10:56.824Z,7.60
2023-01-08T16:13:30.422Z,7.60
2023-01-08T16:16:09.624Z,7.60
2023-01-08T16:18:43.558Z,7.60
2023-01-08T16:21:18.554Z,7.50
2023-01-08T16:23:52.062Z,7.50
2023-01-08T16:26:25.590Z,7.50
2023-01-08T16:28:59.082Z,7.50
2023-01-08T16:31:32.584Z,7.50
2023-01-08T16:34:06.682Z,7.50
2023-01-08T16:36:41.606Z,7.50
2023-01-08T16:39:15.103Z,7.50
2023-01-08T16:41:48.902Z,7.50
2023-01-08T16:44:26.945Z,7.50
2023-01-08T16:47:01.458Z,7.50
2023-01-08T16:49:35.984Z,7.50
2023-01-08T16:52:11.193Z,7.50
2023-01-08T16:54:44.719Z,7.50
2023-01-08T16:57:18.236Z,7.50
2023-01-08T16:59:51.745Z,7.50
2023-01-08T17:02:25.925Z,7.50
2023-01-08T17:04:59.502Z,7.50
2023-01-08T17:07:35.296Z,7.40
2023-01-08T17:10:10.157Z,7.40
2023-01-08T17:12:43.716Z,7.40
2023-01-08T17:15:17.470Z,7.40
2023-01-08T17:17:51.031Z,7.40
2023-01-08T17:20:24.633Z,7.40
2023-01-08T17:23:01.570Z,7.40
2023-01-08T17:25:35.189Z,7.40
2023-01-08T17:28:08.734Z,7.40
2023-01-08T17:30:42.272Z,7.50
2023-01-08T17:33:15.905Z,7.40
2023-01-08T17:35:49.481Z,7.40
2023-01-08T17:38:24.332Z,7.40
2023-01-08T17:41:02.258Z,7.40
2023-01-08T17:43:36.441Z,7.40
2023-01-08T17:46:10.551Z,7.40
2023-01-08T17:48:46.303Z,7.40
2023-01-08T17:51:19.849Z,7.40
2023-01-08T17:53:54.821Z,7.40
2023-01-08T17:56:28.878Z,7.40
2023-01-08T17:59:05.629Z,7.40
2023-01-08T18:01:39.158Z,7.40
2023-01-08T18:04:12.918Z,7.40
2023-01-08T18:06:46.532Z,7.40
2023-01-08T18:09:21.673Z,7.40
2023-01-08T18:11:55.810Z,7.40
2023-01-08T18:14:29.349Z,7.40
2023-01-08T18:17:03.030Z,7.40
2023-01-08T18:19:36.630Z,7.40
2023-01-08T18:22:10.313Z,7.40
2023-01-08T18:24:45.287Z,7.30
2023-01-08T18:27:18.891Z,7.30
2023-01-08T18:29:54.735Z,7.30
2023-01-08T18:32:28.385Z,7.30
2023-01-08T18:35:03.776Z,7.30
2023-01-08T18:37:37.418Z,7.30
2023-01-08T18:40:13.618Z,7.30
2023-01-08T18:42:49.071Z,7.30
2023-01-08T18:45:22.583Z,7.30
2023-01-08T18:47:56.419Z,7.30
2023-01-08T18:50:31.177Z,7.30
2023-01-08T18:53:06.021Z,7.30
2023-01-08T18:55:40.930Z,7.20
2023-01-08T18:58:14.606Z,7.30
2023-01-08T19:00:48.418Z,7.20
2023-01-08T19:03:22.071Z,7.20
2023-01-08T19:05:55.629Z,7.20
2023-01-08T19:08:29.223Z,7.20
2023-01-08T19:11:06.369Z,7.20
2023-01-08T19:13:40.828Z,7.20
2023-01-08T19:16:17.256Z,7.20
2023-01-08T19:18:51.347Z,7.20
2023-01-08T19:21:24.926Z,7.20
2023-01-08T19:23:58.475Z,7.20
2023-01-08T19:26:33.373Z,7.20
2023-01-08T19:29:06.931Z,7.20
2023-01-08T19:31:40.516Z,7.20
2023-01-08T19:34:14.054Z,7.20
2023-01-08T19:36:47.498Z,7.20
2023-01-08T19:39:21.557Z,7.10
2023-01-08T19:42:13.574Z,7.10
2023-01-08T19:44:47.091Z,7.10
2023-01-08T19:47:20.708Z,7.10
2023-01-08T19:49:54.309Z,7.10
2023-01-08T19:52:28.418Z,7.10
2023-01-08T19:55:01.939Z,7.10
2023-01-08T19:57:37.326Z,7.10
2023-01-08T20:00:12.243Z,7.10
2023-01-08T20:02:46.266Z,7.10
2023-01-08T20:05:20.549Z,7.10
2023-01-08T20:07:56.486Z,7.10
2023-01-08T20:10:30.107Z,7.10
2023-01-08T20:13:05.117Z,7.10
2023-01-08T20:15:38.760Z,7.20
2023-01-08T20:18:12.410Z,7.10
2023-01-08T20:20:45.989Z,7.20
2023-01-08T20:23:20.055Z,7.20
2023-01-08T20:25:53.598Z,7.20
2023-01-08T20:28:28.529Z,7.20
2023-01-08T20:31:06.999Z,7.20
2023-01-08T20:33:41.346Z,7.30
2023-01-08T20:36:17.277Z,7.30
2023-01-08T20:38:53.574Z,7.30
2023-01-08T20:41:27.691Z,7.30
2023-01-08T20:44:05.455Z,7.30
2023-01-08T20:46:39.950Z,7.30
2023-01-08T20:49:18.281Z,7.30
2023-01-08T20:51:58.550Z,7.30
2023-01-08T20:54:32.805Z,7.30
2023-01-08T20:57:06.335Z,7.30
2023-01-08T20:59:41.287Z,7.30
2023-01-08T21:02:14.738Z,7.30
2023-01-08T21:04:48.255Z,7.30
2023-01-08T21:07:21.813Z,7.30
2023-01-08T21:09:55.663Z,7.30
2023-01-08T21:12:29.426Z,7.30
2023-01-08T21:15:04.611Z,7.30
2023-01-08T21:17:38.201Z,7.30
2023-01-08T21:20:13.382Z,7.30
2023-01-08T21:22:46.965Z,7.30
2023-01-08T21:25:20.518Z,7.30
2023-01-08T21:27:54.053Z,7.30
2023-01-08T21:30:29.373Z,7.30
2023-01-08T21:33:02.918Z,7.30
2023-01-08T21:35:36.376Z,7.30
2023-01-08T21:38:10.078Z,7.30
2023-01-08T21:40:43.702Z,7.20
2023-01-08T21:43:34.451Z,7.20
2023-01-08T21:46:09.382Z,7.20
2023-01-08T21:48:43.178Z,7.20
2023-01-08T21:51:30.490Z,7.10
2023-01-08T21:54:04.346Z,7.10
2023-01-08T21:56:37.879Z,7.10
2023-01-08T21:59:11.345Z,7.10
2023-01-08T22:01:46.635Z,7.10
2023-01-08T22:04:20.248Z,7.10
2023-01-08T22:06:54.247Z,7.10
2023-01-08T22:09:27.811Z,7.10
2023-01-08T22:12:01.308Z,7.10
2023-01-08T22:14:34.897Z,7.20
2023-01-08T22:17:10.322Z,7.20
2023-01-08T22:19:43.852Z,7.20
2023-01-08T22:22:17.517Z,7.20
2023-01-08T22:24:52.427Z,7.30
2023-01-08T22:27:25.941Z,7.20
2023-01-08T22:29:59.512Z,7.30
2023-01-08T22:32:35.516Z,7.30
2023-01-08T22:35:09.468Z,7.30
2023-01-08T22:37:43.930Z,7.30
2023-01-08T22:40:18.055Z,7.30
2023-01-08T22:42:51.551Z,7.30
2023-01-08T22:45:25.168Z,7.30
2023-01-08T22:48:00.292Z,7.30
2023-01-08T22:50:34.269Z,7.30
2023-01-08T22:53:07.916Z,7.30
2023-01-08T22:55:42.145Z,7.30
2023-01-08T22:58:16.348Z,7.30
2023-01-08T23:00:50.059Z,7.40
2023-01-08T23:03:24.957Z,7.40
2023-01-08T23:06:02.653Z,7.40
2023-01-08T23:08:36.239Z,7.40
2023-01-08T23:11:11.576Z,7.40
2023-01-08T23:13:45.649Z,7.40
2023-01-08T23:16:21.842Z,7.40
2023-01-08T23:18:58.376Z,7.40
2023-01-08T23:21:32.277Z,7.40
2023-01-08T23:24:07.536Z,7.40
2023-01-08T23:26:41.814Z,7.40
2023-01-08T23:29:15.360Z,7.40
2023-01-08T23:31:49.090Z,7.40
2023-01-08T23:34:24.465Z,7.40
2023-01-08T23:36:57.984Z,7.50
2023-01-08T23:39:31.464Z,7.40
2023-01-08T23:42:05.196Z,7.40
2023-01-08T23:44:39.005Z,7.50
2023-01-08T23:47:12.908Z,7.50
2023-01-08T23:49:47.817Z,7.40
2023-01-08T23:52:21.321Z,7.40
2023-01-08T23:54:54.923Z,7.40
2023-01-08T23:57:28.504Z,7.40
